Terminal Aerodrome Forecast
Issued by NWS

Home | Current Version | Previous Version | Text Only | Print | Product List | Glossary On
Versions: 1 2 3 4 5 6 7 8 9 10 11 12 13
000
FTUS45 KABQ 020500
TAFTCC
TAF
KTCC 020522Z 0206/0306 25008KT P6SM SCT120
     FM020800 35011KT P6SM BKN110
     FM021200 36016G26KT P6SM SCT100
     FM022200 35010KT P6SM SKC=

USA.gov is the U.S. government's official web portal to all federal, state and local government web resources and services.